sensor_id;sensor_type;location;lat;lon;timestamp;P1;durP1;ratioP1;P2;durP2;ratioP2
19623;SDS011;9959;49.798;9.928;2024-01-11T00:02:11;57.97;;;19.97;;
19623;SDS011;9959;49.798;9.928;2024-01-11T00:04:39;53.07;;;17.77;;
19623;SDS011;9959;49.798;9.928;2024-01-11T00:07:07;57.47;;;18.00;;
19623;SDS011;9959;49.798;9.928;2024-01-11T00:09:38;50.80;;;17.00;;
19623;SDS011;9959;49.798;9.928;2024-01-11T00:12:06;41.90;;;16.03;;
19623;SDS011;9959;49.798;9.928;2024-01-11T00:14:33;51.97;;;18.10;;
19623;SDS011;9959;49.798;9.928;2024-01-11T00:17:00;59.53;;;18.30;;
19623;SDS011;9959;49.798;9.928;2024-01-11T00:19:27;61.97;;;17.33;;
19623;SDS011;9959;49.798;9.928;2024-01-11T00:21:54;55.77;;;17.97;;
19623;SDS011;9959;49.798;9.928;2024-01-11T00:24:21;51.20;;;18.17;;
19623;SDS011;9959;49.798;9.928;2024-01-11T00:26:48;52.57;;;17.83;;
19623;SDS011;9959;49.798;9.928;2024-01-11T00:29:15;47.57;;;17.27;;
19623;SDS011;9959;49.798;9.928;2024-01-11T00:31:42;47.57;;;17.20;;
19623;SDS011;9959;49.798;9.928;2024-01-11T00:34:09;51.67;;;18.17;;
19623;SDS011;9959;49.798;9.928;2024-01-11T00:36:36;57.67;;;16.83;;
19623;SDS011;9959;49.798;9.928;2024-01-11T00:39:03;54.60;;;17.80;;
19623;SDS011;9959;49.798;9.928;2024-01-11T00:41:30;58.03;;;19.77;;
19623;SDS011;9959;49.798;9.928;2024-01-11T00:43:57;52.23;;;16.30;;
19623;SDS011;9959;49.798;9.928;2024-01-11T00:46:24;50.23;;;17.70;;
19623;SDS011;9959;49.798;9.928;2024-01-11T00:48:51;55.10;;;16.43;;
19623;SDS011;9959;49.798;9.928;2024-01-11T00:51:22;52.83;;;17.50;;
19623;SDS011;9959;49.798;9.928;2024-01-11T00:53:49;37.93;;;14.63;;
19623;SDS011;9959;49.798;9.928;2024-01-11T00:56:16;48.90;;;17.37;;
19623;SDS011;9959;49.798;9.928;2024-01-11T00:58:44;51.43;;;18.13;;
19623;SDS011;9959;49.798;9.928;2024-01-11T01:01:11;53.30;;;17.40;;
19623;SDS011;9959;49.798;9.928;2024-01-11T01:03:39;52.47;;;18.37;;
19623;SDS011;9959;49.798;9.928;2024-01-11T01:06:06;60.67;;;19.07;;
19623;SDS011;9959;49.798;9.928;2024-01-11T01:08:33;55.73;;;18.43;;
19623;SDS011;9959;49.798;9.928;2024-01-11T01:11:00;62.53;;;18.43;;
19623;SDS011;9959;49.798;9.928;2024-01-11T01:13:27;49.23;;;16.03;;
19623;SDS011;9959;49.798;9.928;2024-01-11T01:15:54;52.73;;;17.77;;
19623;SDS011;9959;49.798;9.928;2024-01-11T01:18:21;54.33;;;18.57;;
19623;SDS011;9959;49.798;9.928;2024-01-11T01:20:48;53.97;;;17.27;;
19623;SDS011;9959;49.798;9.928;2024-01-11T01:23:15;65.93;;;17.27;;
19623;SDS011;9959;49.798;9.928;2024-01-11T01:25:43;43.63;;;15.90;;
19623;SDS011;9959;49.798;9.928;2024-01-11T01:28:10;43.93;;;15.23;;
19623;SDS011;9959;49.798;9.928;2024-01-11T01:30:38;39.53;;;13.53;;
19623;SDS011;9959;49.798;9.928;2024-01-11T01:33:05;32.10;;;10.97;;
19623;SDS011;9959;49.798;9.928;2024-01-11T01:35:33;49.67;;;18.20;;
19623;SDS011;9959;49.798;9.928;2024-01-11T01:38:01;49.77;;;18.47;;
19623;SDS011;9959;49.798;9.928;2024-01-11T01:40:32;57.27;;;18.13;;
19623;SDS011;9959;49.798;9.928;2024-01-11T01:42:59;46.80;;;16.33;;
19623;SDS011;9959;49.798;9.928;2024-01-11T01:45:29;51.03;;;16.47;;
19623;SDS011;9959;49.798;9.928;2024-01-11T01:47:56;46.77;;;18.00;;
19623;SDS011;9959;49.798;9.928;2024-01-11T01:50:24;49.80;;;16.37;;
19623;SDS011;9959;49.798;9.928;2024-01-11T01:52:52;50.83;;;18.80;;
19623;SDS011;9959;49.798;9.928;2024-01-11T01:55:20;49.30;;;17.27;;
19623;SDS011;9959;49.798;9.928;2024-01-11T01:57:49;49.10;;;19.60;;
19623;SDS011;9959;49.798;9.928;2024-01-11T02:00:17;41.83;;;15.67;;
19623;SDS011;9959;49.798;9.928;2024-01-11T02:02:45;40.17;;;14.17;;
19623;SDS011;9959;49.798;9.928;2024-01-11T02:05:18;52.10;;;16.77;;
19623;SDS011;9959;49.798;9.928;2024-01-11T02:07:45;55.30;;;16.53;;
19623;SDS011;9959;49.798;9.928;2024-01-11T02:10:12;44.03;;;15.30;;
19623;SDS011;9959;49.798;9.928;2024-01-11T02:12:39;46.07;;;17.43;;
19623;SDS011;9959;49.798;9.928;2024-01-11T02:15:08;47.57;;;16.07;;
19623;SDS011;9959;49.798;9.928;2024-01-11T02:17:34;50.07;;;17.23;;
19623;SDS011;9959;49.798;9.928;2024-01-11T02:20:02;44.23;;;16.50;;
19623;SDS011;9959;49.798;9.928;2024-01-11T02:22:38;55.30;;;16.77;;
19623;SDS011;9959;49.798;9.928;2024-01-11T02:25:07;41.50;;;15.70;;
19623;SDS011;9959;49.798;9.928;2024-01-11T02:27:47;45.20;;;14.27;;
19623;SDS011;9959;49.798;9.928;2024-01-11T02:30:15;55.03;;;17.43;;
19623;SDS011;9959;49.798;9.928;2024-01-11T02:32:44;49.43;;;15.00;;
19623;SDS011;9959;49.798;9.928;2024-01-11T02:35:13;43.90;;;14.83;;
19623;SDS011;9959;49.798;9.928;2024-01-11T02:37:41;48.60;;;16.70;;
19623;SDS011;9959;49.798;9.928;2024-01-11T02:40:10;37.73;;;14.03;;
19623;SDS011;9959;49.798;9.928;2024-01-11T02:42:39;44.93;;;16.10;;
19623;SDS011;9959;49.798;9.928;2024-01-11T02:45:06;42.53;;;14.00;;
19623;SDS011;9959;49.798;9.928;2024-01-11T02:47:33;50.57;;;16.13;;
19623;SDS011;9959;49.798;9.928;2024-01-11T02:50:01;35.97;;;14.73;;
19623;SDS011;9959;49.798;9.928;2024-01-11T02:52:28;44.63;;;15.57;;
19623;SDS011;9959;49.798;9.928;2024-01-11T02:54:54;47.90;;;17.30;;
19623;SDS011;9959;49.798;9.928;2024-01-11T02:57:21;42.70;;;15.90;;
19623;SDS011;9959;49.798;9.928;2024-01-11T02:59:49;47.37;;;15.00;;
19623;SDS011;9959;49.798;9.928;2024-01-11T03:02:16;50.87;;;16.67;;
19623;SDS011;9959;49.798;9.928;2024-01-11T03:04:43;39.47;;;13.13;;
19623;SDS011;9959;49.798;9.928;2024-01-11T03:07:10;28.97;;;11.27;;
19623;SDS011;9959;49.798;9.928;2024-01-11T03:09:37;44.80;;;15.00;;
19623;SDS011;9959;49.798;9.928;2024-01-11T03:12:04;43.03;;;14.40;;
19623;SDS011;9959;49.798;9.928;2024-01-11T03:14:33;57.73;;;17.57;;
19623;SDS011;9959;49.798;9.928;2024-01-11T03:17:00;47.63;;;14.83;;
19623;SDS011;9959;49.798;9.928;2024-01-11T03:19:28;42.77;;;14.87;;
19623;SDS011;9959;49.798;9.928;2024-01-11T03:21:55;42.37;;;14.80;;
19623;SDS011;9959;49.798;9.928;2024-01-11T03:24:22;48.23;;;15.57;;
19623;SDS011;9959;49.798;9.928;2024-01-11T03:26:49;41.07;;;14.73;;
19623;SDS011;9959;49.798;9.928;2024-01-11T03:29:16;31.63;;;11.83;;
19623;SDS011;9959;49.798;9.928;2024-01-11T03:31:43;42.33;;;15.03;;
19623;SDS011;9959;49.798;9.928;2024-01-11T03:34:11;44.77;;;14.90;;
19623;SDS011;9959;49.798;9.928;2024-01-11T03:36:39;35.07;;;12.37;;
19623;SDS011;9959;49.798;9.928;2024-01-11T03:39:06;35.33;;;13.30;;
19623;SDS011;9959;49.798;9.928;2024-01-11T03:41:33;17.40;;;6.97;;
19623;SDS011;9959;49.798;9.928;2024-01-11T03:44:00;49.80;;;16.23;;
19623;SDS011;9959;49.798;9.928;2024-01-11T03:46:30;45.93;;;15.80;;
19623;SDS011;9959;49.798;9.928;2024-01-11T03:48:58;46.63;;;13.87;;
19623;SDS011;9959;49.798;9.928;2024-01-11T03:51:26;42.70;;;14.90;;
19623;SDS011;9959;49.798;9.928;2024-01-11T03:53:54;43.27;;;15.13;;
19623;SDS011;9959;49.798;9.928;2024-01-11T03:56:21;35.47;;;12.30;;
19623;SDS011;9959;49.798;9.928;2024-01-11T03:58:48;41.27;;;15.90;;
19623;SDS011;9959;49.798;9.928;2024-01-11T04:01:15;54.43;;;16.37;;
19623;SDS011;9959;49.798;9.928;2024-01-11T04:03:42;53.50;;;15.87;;
19623;SDS011;9959;49.798;9.928;2024-01-11T04:06:09;45.77;;;13.37;;
19623;SDS011;9959;49.798;9.928;2024-01-11T04:08:45;46.43;;;14.93;;
19623;SDS011;9959;49.798;9.928;2024-01-11T04:11:12;48.40;;;15.17;;
19623;SDS011;9959;49.798;9.928;2024-01-11T04:13:39;55.33;;;16.13;;
19623;SDS011;9959;49.798;9.928;2024-01-11T04:16:07;38.50;;;12.90;;
19623;SDS011;9959;49.798;9.928;2024-01-11T04:18:34;51.53;;;16.27;;
19623;SDS011;9959;49.798;9.928;2024-01-11T04:21:01;32.97;;;10.13;;
19623;SDS011;9959;49.798;9.928;2024-01-11T04:23:28;37.67;;;12.50;;
19623;SDS011;9959;49.798;9.928;2024-01-11T04:25:56;34.53;;;13.50;;
19623;SDS011;9959;49.798;9.928;2024-01-11T04:28:23;39.47;;;13.20;;
19623;SDS011;9959;49.798;9.928;2024-01-11T04:30:50;39.43;;;16.53;;
19623;SDS011;9959;49.798;9.928;2024-01-11T04:33:17;49.20;;;17.57;;
19623;SDS011;9959;49.798;9.928;2024-01-11T04:35:44;40.10;;;14.73;;
19623;SDS011;9959;49.798;9.928;2024-01-11T04:38:11;41.57;;;14.73;;
19623;SDS011;9959;49.798;9.928;2024-01-11T04:40:38;45.40;;;13.80;;
19623;SDS011;9959;49.798;9.928;2024-01-11T04:43:05;42.17;;;14.33;;
19623;SDS011;9959;49.798;9.928;2024-01-11T04:45:34;44.50;;;14.10;;
19623;SDS011;9959;49.798;9.928;2024-01-11T04:48:01;41.97;;;14.90;;
19623;SDS011;9959;49.798;9.928;2024-01-11T04:50:28;42.93;;;14.00;;
19623;SDS011;9959;49.798;9.928;2024-01-11T04:52:55;48.60;;;16.30;;
19623;SDS011;9959;49.798;9.928;2024-01-11T04:55:22;14.53;;;5.43;;
19623;SDS011;9959;49.798;9.928;2024-01-11T04:57:49;36.90;;;11.90;;
19623;SDS011;9959;49.798;9.928;2024-01-11T05:00:16;50.73;;;14.87;;
19623;SDS011;9959;49.798;9.928;2024-01-11T05:02:43;36.93;;;14.20;;
19623;SDS011;9959;49.798;9.928;2024-01-11T05:05:10;33.03;;;13.07;;
19623;SDS011;9959;49.798;9.928;2024-01-11T05:07:37;50.50;;;16.27;;
19623;SDS011;9959;49.798;9.928;2024-01-11T05:10:04;40.67;;;12.40;;
19623;SDS011;9959;49.798;9.928;2024-01-11T05:12:32;47.37;;;14.33;;
19623;SDS011;9959;49.798;9.928;2024-01-11T05:14:58;30.23;;;12.07;;
19623;SDS011;9959;49.798;9.928;2024-01-11T05:17:26;41.13;;;13.40;;
19623;SDS011;9959;49.798;9.928;2024-01-11T05:19:53;44.77;;;15.97;;
19623;SDS011;9959;49.798;9.928;2024-01-11T05:22:20;40.33;;;14.60;;
19623;SDS011;9959;49.798;9.928;2024-01-11T05:24:48;48.57;;;15.50;;
19623;SDS011;9959;49.798;9.928;2024-01-11T05:27:15;41.97;;;13.60;;
19623;SDS011;9959;49.798;9.928;2024-01-11T05:29:42;42.80;;;14.67;;
19623;SDS011;9959;49.798;9.928;2024-01-11T05:32:09;34.53;;;11.60;;
19623;SDS011;9959;49.798;9.928;2024-01-11T05:34:37;51.87;;;15.83;;
19623;SDS011;9959;49.798;9.928;2024-01-11T05:37:04;24.20;;;10.47;;
19623;SDS011;9959;49.798;9.928;2024-01-11T05:39:31;51.73;;;16.37;;
19623;SDS011;9959;49.798;9.928;2024-01-11T05:41:58;26.43;;;10.50;;
19623;SDS011;9959;49.798;9.928;2024-01-11T05:44:25;43.07;;;13.70;;
19623;SDS011;9959;49.798;9.928;2024-01-11T05:46:52;34.97;;;11.37;;
19623;SDS011;9959;49.798;9.928;2024-01-11T05:49:19;35.20;;;12.60;;
19623;SDS011;9959;49.798;9.928;2024-01-11T05:51:46;54.50;;;14.73;;
19623;SDS011;9959;49.798;9.928;2024-01-11T05:54:13;37.00;;;13.10;;
19623;SDS011;9959;49.798;9.928;2024-01-11T05:56:40;36.70;;;14.23;;
19623;SDS011;9959;49.798;9.928;2024-01-11T05:59:07;37.47;;;12.83;;
19623;SDS011;9959;49.798;9.928;2024-01-11T06:01:39;16.67;;;6.60;;
19623;SDS011;9959;49.798;9.928;2024-01-11T06:04:07;47.57;;;15.23;;
19623;SDS011;9959;49.798;9.928;2024-01-11T06:06:34;46.13;;;14.20;;
19623;SDS011;9959;49.798;9.928;2024-01-11T06:09:01;24.63;;;8.43;;
19623;SDS011;9959;49.798;9.928;2024-01-11T06:11:33;42.20;;;13.37;;
19623;SDS011;9959;49.798;9.928;2024-01-11T06:14:00;43.53;;;13.67;;
19623;SDS011;9959;49.798;9.928;2024-01-11T06:16:28;31.27;;;9.83;;
19623;SDS011;9959;49.798;9.928;2024-01-11T06:18:55;46.13;;;14.37;;
19623;SDS011;9959;49.798;9.928;2024-01-11T06:21:22;46.43;;;14.63;;
19623;SDS011;9959;49.798;9.928;2024-01-11T06:23:48;47.87;;;15.97;;
19623;SDS011;9959;49.798;9.928;2024-01-11T06:26:16;53.03;;;16.73;;
19623;SDS011;9959;49.798;9.928;2024-01-11T06:28:43;38.53;;;14.60;;
19623;SDS011;9959;49.798;9.928;2024-01-11T06:31:10;46.53;;;15.80;;
19623;SDS011;9959;49.798;9.928;2024-01-11T06:33:37;50.93;;;13.00;;
19623;SDS011;9959;49.798;9.928;2024-01-11T06:36:07;42.80;;;12.70;;
19623;SDS011;9959;49.798;9.928;2024-01-11T06:38:34;46.43;;;14.90;;
19623;SDS011;9959;49.798;9.928;2024-01-11T06:41:01;45.63;;;16.03;;
19623;SDS011;9959;49.798;9.928;2024-01-11T06:43:28;45.20;;;15.37;;
19623;SDS011;9959;49.798;9.928;2024-01-11T06:45:55;51.07;;;15.83;;
19623;SDS011;9959;49.798;9.928;2024-01-11T06:48:21;39.17;;;15.23;;
19623;SDS011;9959;49.798;9.928;2024-01-11T06:50:48;38.17;;;14.90;;
19623;SDS011;9959;49.798;9.928;2024-01-11T06:53:15;45.73;;;15.23;;
19623;SDS011;9959;49.798;9.928;2024-01-11T06:55:42;43.47;;;13.37;;
19623;SDS011;9959;49.798;9.928;2024-01-11T06:58:11;52.03;;;15.50;;
19623;SDS011;9959;49.798;9.928;2024-01-11T07:00:38;48.53;;;16.07;;
19623;SDS011;9959;49.798;9.928;2024-01-11T07:03:10;45.97;;;13.83;;
19623;SDS011;9959;49.798;9.928;2024-01-11T07:05:37;42.47;;;13.97;;
19623;SDS011;9959;49.798;9.928;2024-01-11T07:08:04;46.13;;;15.33;;
19623;SDS011;9959;49.798;9.928;2024-01-11T07:10:31;44.10;;;15.63;;
19623;SDS011;9959;49.798;9.928;2024-01-11T07:12:58;37.33;;;13.60;;
19623;SDS011;9959;49.798;9.928;2024-01-11T07:15:25;23.37;;;8.93;;
19623;SDS011;9959;49.798;9.928;2024-01-11T07:17:52;44.07;;;15.13;;
19623;SDS011;9959;49.798;9.928;2024-01-11T07:20:20;53.67;;;16.43;;
19623;SDS011;9959;49.798;9.928;2024-01-11T07:22:47;59.23;;;16.07;;
19623;SDS011;9959;49.798;9.928;2024-01-11T07:25:14;50.27;;;16.53;;
19623;SDS011;9959;49.798;9.928;2024-01-11T07:27:41;48.90;;;15.13;;
19623;SDS011;9959;49.798;9.928;2024-01-11T07:30:08;45.73;;;15.77;;
19623;SDS011;9959;49.798;9.928;2024-01-11T07:32:36;49.13;;;14.80;;
19623;SDS011;9959;49.798;9.928;2024-01-11T07:35:04;47.23;;;15.83;;
19623;SDS011;9959;49.798;9.928;2024-01-11T07:37:39;56.43;;;17.47;;
19623;SDS011;9959;49.798;9.928;2024-01-11T07:40:06;50.93;;;15.20;;
19623;SDS011;9959;49.798;9.928;2024-01-11T07:42:37;38.43;;;14.93;;
19623;SDS011;9959;49.798;9.928;2024-01-11T07:45:07;39.87;;;14.63;;
19623;SDS011;9959;49.798;9.928;2024-01-11T07:47:36;48.77;;;13.73;;
19623;SDS011;9959;49.798;9.928;2024-01-11T07:50:07;47.30;;;16.57;;
19623;SDS011;9959;49.798;9.928;2024-01-11T07:52:36;50.10;;;15.77;;
19623;SDS011;9959;49.798;9.928;2024-01-11T07:55:04;42.13;;;14.30;;
19623;SDS011;9959;49.798;9.928;2024-01-11T07:57:34;50.90;;;15.07;;
19623;SDS011;9959;49.798;9.928;2024-01-11T08:00:01;40.53;;;15.23;;
19623;SDS011;9959;49.798;9.928;2024-01-11T08:02:30;39.90;;;14.70;;
19623;SDS011;9959;49.798;9.928;2024-01-11T08:04:57;48.67;;;16.13;;
19623;SDS011;9959;49.798;9.928;2024-01-11T08:07:29;38.90;;;13.10;;
19623;SDS011;9959;49.798;9.928;2024-01-11T08:09:56;44.00;;;14.83;;
19623;SDS011;9959;49.798;9.928;2024-01-11T08:12:24;37.13;;;12.67;;
19623;SDS011;9959;49.798;9.928;2024-01-11T08:14:51;54.87;;;18.10;;
19623;SDS011;9959;49.798;9.928;2024-01-11T08:17:18;47.90;;;16.53;;
19623;SDS011;9959;49.798;9.928;2024-01-11T08:19:45;53.67;;;17.33;;
19623;SDS011;9959;49.798;9.928;2024-01-11T08:22:12;43.30;;;14.73;;
19623;SDS011;9959;49.798;9.928;2024-01-11T08:24:39;49.23;;;17.43;;
19623;SDS011;9959;49.798;9.928;2024-01-11T08:27:06;35.90;;;11.53;;
19623;SDS011;9959;49.798;9.928;2024-01-11T08:29:33;50.27;;;15.43;;
19623;SDS011;9959;49.798;9.928;2024-01-11T08:32:00;49.03;;;14.87;;
19623;SDS011;9959;49.798;9.928;2024-01-11T08:34:49;52.00;;;17.27;;
19623;SDS011;9959;49.798;9.928;2024-01-11T08:37:16;57.70;;;18.20;;
19623;SDS011;9959;49.798;9.928;2024-01-11T08:39:43;40.83;;;16.03;;
19623;SDS011;9959;49.798;9.928;2024-01-11T08:42:12;64.30;;;20.40;;
19623;SDS011;9959;49.798;9.928;2024-01-11T08:44:42;53.23;;;17.23;;
19623;SDS011;9959;49.798;9.928;2024-01-11T08:47:09;54.37;;;17.13;;
19623;SDS011;9959;49.798;9.928;2024-01-11T08:49:38;50.23;;;17.67;;
19623;SDS011;9959;49.798;9.928;2024-01-11T08:52:05;50.50;;;18.27;;
19623;SDS011;9959;49.798;9.928;2024-01-11T08:54:33;54.27;;;17.53;;
19623;SDS011;9959;49.798;9.928;2024-01-11T08:57:00;46.13;;;15.50;;
19623;SDS011;9959;49.798;9.928;2024-01-11T08:59:27;23.10;;;8.57;;
19623;SDS011;9959;49.798;9.928;2024-01-11T09:01:54;61.03;;;20.93;;
19623;SDS011;9959;49.798;9.928;2024-01-11T09:04:35;41.33;;;13.40;;
19623;SDS011;9959;49.798;9.928;2024-01-11T09:07:03;61.63;;;18.10;;
19623;SDS011;9959;49.798;9.928;2024-01-11T09:09:30;47.27;;;14.53;;
19623;SDS011;9959;49.798;9.928;2024-01-11T09:12:01;40.63;;;14.03;;
19623;SDS011;9959;49.798;9.928;2024-01-11T09:14:29;46.00;;;14.57;;
19623;SDS011;9959;49.798;9.928;2024-01-11T09:16:56;54.17;;;15.93;;
19623;SDS011;9959;49.798;9.928;2024-01-11T09:19:23;43.20;;;15.80;;
19623;SDS011;9959;49.798;9.928;2024-01-11T09:21:50;54.47;;;18.77;;
19623;SDS011;9959;49.798;9.928;2024-01-11T09:24:17;50.27;;;18.33;;
19623;SDS011;9959;49.798;9.928;2024-01-11T09:26:44;59.37;;;20.73;;
19623;SDS011;9959;49.798;9.928;2024-01-11T09:29:11;55.90;;;18.77;;
19623;SDS011;9959;49.798;9.928;2024-01-11T09:31:38;64.80;;;20.50;;
19623;SDS011;9959;49.798;9.928;2024-01-11T09:34:05;46.33;;;16.57;;
19623;SDS011;9959;49.798;9.928;2024-01-11T09:36:34;55.53;;;20.23;;
19623;SDS011;9959;49.798;9.928;2024-01-11T09:39:01;64.50;;;19.20;;
19623;SDS011;9959;49.798;9.928;2024-01-11T09:41:28;54.73;;;20.07;;
19623;SDS011;9959;49.798;9.928;2024-01-11T09:43:58;50.03;;;18.70;;
19623;SDS011;9959;49.798;9.928;2024-01-11T09:46:27;56.97;;;20.03;;
19623;SDS011;9959;49.798;9.928;2024-01-11T09:48:54;53.80;;;17.50;;
19623;SDS011;9959;49.798;9.928;2024-01-11T09:51:22;51.97;;;20.37;;
19623;SDS011;9959;49.798;9.928;2024-01-11T09:53:50;64.13;;;21.17;;
19623;SDS011;9959;49.798;9.928;2024-01-11T09:56:19;42.07;;;16.47;;
19623;SDS011;9959;49.798;9.928;2024-01-11T09:58:46;50.07;;;19.83;;
19623;SDS011;9959;49.798;9.928;2024-01-11T10:01:17;53.58;;;19.70;;
19623;SDS011;9959;49.798;9.928;2024-01-11T10:03:48;53.33;;;20.50;;
19623;SDS011;9959;49.798;9.928;2024-01-11T10:06:15;53.08;;;20.95;;
19623;SDS011;9959;49.798;9.928;2024-01-11T10:08:44;51.97;;;19.13;;
19623;SDS011;9959;49.798;9.928;2024-01-11T10:11:11;58.03;;;21.23;;
19623;SDS011;9959;49.798;9.928;2024-01-11T10:13:38;52.53;;;19.80;;
19623;SDS011;9959;49.798;9.928;2024-01-11T10:18:33;53.35;;;19.98;;
19623;SDS011;9959;49.798;9.928;2024-01-11T10:21:00;53.65;;;19.25;;
19623;SDS011;9959;49.798;9.928;2024-01-11T10:23:28;50.08;;;18.58;;
19623;SDS011;9959;49.798;9.928;2024-01-11T10:25:56;55.55;;;20.38;;
19623;SDS011;9959;49.798;9.928;2024-01-11T10:28:25;54.60;;;18.97;;
19623;SDS011;9959;49.798;9.928;2024-01-11T10:30:53;56.92;;;22.33;;
19623;SDS011;9959;49.798;9.928;2024-01-11T10:33:21;49.70;;;19.77;;
19623;SDS011;9959;49.798;9.928;2024-01-11T10:35:49;54.75;;;20.38;;
19623;SDS011;9959;49.798;9.928;2024-01-11T10:38:17;56.30;;;22.23;;
19623;SDS011;9959;49.798;9.928;2024-01-11T10:40:44;52.97;;;21.13;;
19623;SDS011;9959;49.798;9.928;2024-01-11T10:43:12;48.05;;;20.45;;
19623;SDS011;9959;49.798;9.928;2024-01-11T10:45:45;53.15;;;21.33;;
19623;SDS011;9959;49.798;9.928;2024-01-11T10:48:15;53.17;;;21.67;;
19623;SDS011;9959;49.798;9.928;2024-01-11T10:50:44;59.22;;;22.77;;
19623;SDS011;9959;49.798;9.928;2024-01-11T10:53:31;51.92;;;21.30;;
19623;SDS011;9959;49.798;9.928;2024-01-11T10:56:07;48.90;;;22.33;;
19623;SDS011;9959;49.798;9.928;2024-01-11T10:58:36;47.88;;;22.73;;
19623;SDS011;9959;49.798;9.928;2024-01-11T11:01:04;48.38;;;21.83;;
19623;SDS011;9959;49.798;9.928;2024-01-11T11:03:33;47.05;;;21.83;;
19623;SDS011;9959;49.798;9.928;2024-01-11T11:06:01;46.35;;;21.52;;
19623;SDS011;9959;49.798;9.928;2024-01-11T11:08:30;49.88;;;20.58;;
19623;SDS011;9959;49.798;9.928;2024-01-11T11:10:58;46.40;;;21.55;;
19623;SDS011;9959;49.798;9.928;2024-01-11T11:13:26;49.13;;;23.13;;
19623;SDS011;9959;49.798;9.928;2024-01-11T11:15:53;47.65;;;22.58;;
19623;SDS011;9959;49.798;9.928;2024-01-11T11:18:23;44.95;;;22.55;;
19623;SDS011;9959;49.798;9.928;2024-01-11T11:20:51;49.20;;;22.13;;
19623;SDS011;9959;49.798;9.928;2024-01-11T11:23:18;46.15;;;21.85;;
19623;SDS011;9959;49.798;9.928;2024-01-11T11:25:46;42.17;;;21.98;;
19623;SDS011;9959;49.798;9.928;2024-01-11T11:28:17;41.90;;;21.75;;
19623;SDS011;9959;49.798;9.928;2024-01-11T11:30:48;43.30;;;20.63;;
19623;SDS011;9959;49.798;9.928;2024-01-11T11:33:23;45.25;;;22.58;;
19623;SDS011;9959;49.798;9.928;2024-01-11T11:35:54;43.40;;;20.33;;
19623;SDS011;9959;49.798;9.928;2024-01-11T11:38:25;47.63;;;23.15;;
19623;SDS011;9959;49.798;9.928;2024-01-11T11:40:54;44.00;;;21.77;;
19623;SDS011;9959;49.798;9.928;2024-01-11T11:43:23;48.50;;;22.08;;
19623;SDS011;9959;49.798;9.928;2024-01-11T11:45:51;48.55;;;22.48;;
19623;SDS011;9959;49.798;9.928;2024-01-11T11:51:08;39.50;;;21.58;;
19623;SDS011;9959;49.798;9.928;2024-01-11T11:53:36;41.10;;;20.77;;
19623;SDS011;9959;49.798;9.928;2024-01-11T11:56:04;41.55;;;20.38;;
19623;SDS011;9959;49.798;9.928;2024-01-11T11:58:33;40.30;;;20.17;;
19623;SDS011;9959;49.798;9.928;2024-01-11T12:01:01;44.38;;;20.85;;
19623;SDS011;9959;49.798;9.928;2024-01-11T12:03:30;39.55;;;21.52;;
19623;SDS011;9959;49.798;9.928;2024-01-11T12:05:58;48.50;;;21.20;;
19623;SDS011;9959;49.798;9.928;2024-01-11T12:08:26;46.50;;;21.60;;
19623;SDS011;9959;49.798;9.928;2024-01-11T12:10:54;45.80;;;21.63;;
19623;SDS011;9959;49.798;9.928;2024-01-11T12:13:21;46.63;;;21.67;;
19623;SDS011;9959;49.798;9.928;2024-01-11T12:15:49;40.85;;;20.88;;
19623;SDS011;9959;49.798;9.928;2024-01-11T12:18:15;56.83;;;22.02;;
19623;SDS011;9959;49.798;9.928;2024-01-11T12:20:43;48.25;;;21.90;;
19623;SDS011;9959;49.798;9.928;2024-01-11T12:23:10;47.95;;;22.45;;
19623;SDS011;9959;49.798;9.928;2024-01-11T12:25:37;44.17;;;22.20;;
19623;SDS011;9959;49.798;9.928;2024-01-11T12:28:05;44.33;;;22.38;;
19623;SDS011;9959;49.798;9.928;2024-01-11T12:30:33;43.35;;;21.23;;
19623;SDS011;9959;49.798;9.928;2024-01-11T12:33:00;44.72;;;22.55;;
19623;SDS011;9959;49.798;9.928;2024-01-11T12:35:29;43.50;;;21.80;;
19623;SDS011;9959;49.798;9.928;2024-01-11T12:38:02;42.58;;;21.98;;
19623;SDS011;9959;49.798;9.928;2024-01-11T12:40:35;42.47;;;21.55;;
19623;SDS011;9959;49.798;9.928;2024-01-11T12:43:07;41.75;;;21.67;;
19623;SDS011;9959;49.798;9.928;2024-01-11T12:45:34;46.13;;;21.75;;
19623;SDS011;9959;49.798;9.928;2024-01-11T12:48:02;42.90;;;21.23;;
19623;SDS011;9959;49.798;9.928;2024-01-11T12:50:31;39.83;;;20.92;;
19623;SDS011;9959;49.798;9.928;2024-01-11T12:55:35;41.15;;;19.63;;
19623;SDS011;9959;49.798;9.928;2024-01-11T12:58:20;34.70;;;18.65;;
19623;SDS011;9959;49.798;9.928;2024-01-11T13:00:48;41.60;;;19.77;;
19623;SDS011;9959;49.798;9.928;2024-01-11T13:03:16;45.83;;;21.15;;
19623;SDS011;9959;49.798;9.928;2024-01-11T13:05:43;42.25;;;20.10;;
19623;SDS011;9959;49.798;9.928;2024-01-11T13:08:10;40.00;;;19.65;;
19623;SDS011;9959;49.798;9.928;2024-01-11T13:10:38;38.70;;;19.13;;
19623;SDS011;9959;49.798;9.928;2024-01-11T13:13:05;41.85;;;20.58;;
19623;SDS011;9959;49.798;9.928;2024-01-11T13:15:35;42.65;;;21.13;;
19623;SDS011;9959;49.798;9.928;2024-01-11T13:18:03;37.40;;;19.58;;
19623;SDS011;9959;49.798;9.928;2024-01-11T13:20:31;41.83;;;21.30;;
19623;SDS011;9959;49.798;9.928;2024-01-11T13:23:11;37.75;;;19.90;;
19623;SDS011;9959;49.798;9.928;2024-01-11T13:25:43;38.33;;;20.55;;
19623;SDS011;9959;49.798;9.928;2024-01-11T13:28:11;40.15;;;20.67;;
19623;SDS011;9959;49.798;9.928;2024-01-11T13:30:42;35.67;;;20.27;;
19623;SDS011;9959;49.798;9.928;2024-01-11T13:33:10;35.55;;;19.65;;
19623;SDS011;9959;49.798;9.928;2024-01-11T13:35:37;37.85;;;20.35;;
19623;SDS011;9959;49.798;9.928;2024-01-11T13:38:06;35.10;;;19.88;;
19623;SDS011;9959;49.798;9.928;2024-01-11T13:40:34;39.83;;;20.80;;
19623;SDS011;9959;49.798;9.928;2024-01-11T13:43:01;35.97;;;21.05;;
19623;SDS011;9959;49.798;9.928;2024-01-11T13:45:29;37.17;;;20.05;;
19623;SDS011;9959;49.798;9.928;2024-01-11T13:47:56;36.78;;;20.05;;
19623;SDS011;9959;49.798;9.928;2024-01-11T13:50:24;39.35;;;19.48;;
19623;SDS011;9959;49.798;9.928;2024-01-11T13:52:52;36.75;;;21.33;;
19623;SDS011;9959;49.798;9.928;2024-01-11T13:55:19;34.95;;;19.70;;
19623;SDS011;9959;49.798;9.928;2024-01-11T13:57:49;42.00;;;20.20;;
19623;SDS011;9959;49.798;9.928;2024-01-11T14:00:17;36.67;;;20.05;;
19623;SDS011;9959;49.798;9.928;2024-01-11T14:02:46;37.83;;;20.40;;
19623;SDS011;9959;49.798;9.928;2024-01-11T14:05:14;41.05;;;20.40;;
19623;SDS011;9959;49.798;9.928;2024-01-11T14:07:46;40.33;;;20.42;;
19623;SDS011;9959;49.798;9.928;2024-01-11T14:10:16;34.67;;;19.10;;
19623;SDS011;9959;49.798;9.928;2024-01-11T14:12:43;36.95;;;19.33;;
19623;SDS011;9959;49.798;9.928;2024-01-11T14:15:10;35.90;;;18.88;;
19623;SDS011;9959;49.798;9.928;2024-01-11T14:17:38;40.25;;;20.00;;
19623;SDS011;9959;49.798;9.928;2024-01-11T14:20:07;38.20;;;19.13;;
19623;SDS011;9959;49.798;9.928;2024-01-11T14:22:42;34.55;;;19.10;;
19623;SDS011;9959;49.798;9.928;2024-01-11T14:25:18;33.22;;;18.95;;
19623;SDS011;9959;49.798;9.928;2024-01-11T14:27:49;37.03;;;19.17;;
19623;SDS011;9959;49.798;9.928;2024-01-11T14:30:16;35.83;;;18.92;;
19623;SDS011;9959;49.798;9.928;2024-01-11T14:32:43;36.95;;;19.15;;
19623;SDS011;9959;49.798;9.928;2024-01-11T14:35:14;37.85;;;18.83;;
19623;SDS011;9959;49.798;9.928;2024-01-11T14:37:42;41.20;;;20.10;;
19623;SDS011;9959;49.798;9.928;2024-01-11T14:40:11;41.38;;;18.02;;
19623;SDS011;9959;49.798;9.928;2024-01-11T14:42:39;39.20;;;18.55;;
19623;SDS011;9959;49.798;9.928;2024-01-11T14:45:06;42.78;;;19.20;;
19623;SDS011;9959;49.798;9.928;2024-01-11T14:47:33;42.53;;;19.33;;
19623;SDS011;9959;49.798;9.928;2024-01-11T14:50:01;48.05;;;19.58;;